Time;durP1;ratioP1;P1;durP2;ratioP2;P2;SDS_P1;SDS_P2;PMS_P1;PMS_P2;Temp;Humidity;BMP_temperature;BMP_pressure;BME280_temperature;BME280_humidity;BME280_pressure;Samples;Min_cycle;Max_cycle;Signal;HPM_P1;HPM_P2
2024/04/23 00:01:03;;;;;;;3.97;3.20;;;7.00;99.90;;;;;;4446894;26;20449;-59
2024/04/23 00:03:04;;;;;;;5.03;3.38;;;7.00;99.90;;;;;;4456585;26;20015;-60
2024/04/23 00:05:05;;;;;;;5.80;3.67;;;6.90;99.90;;;;;;4465384;26;20008;-62
2024/04/23 00:07:06;;;;;;;3.80;2.90;;;7.00;99.90;;;;;;4457113;26;20456;-59
2024/04/23 00:09:06;;;;;;;4.43;3.60;;;7.00;99.90;;;;;;4428490;26;20017;-60
2024/04/23 00:11:07;;;;;;;3.88;3.00;;;6.90;99.90;;;;;;4416980;26;20012;-59
2024/04/23 00:13:07;;;;;;;4.07;2.80;;;6.90;99.90;;;;;;4453361;26;20012;-59
2024/04/23 00:15:08;;;;;;;5.47;3.35;;;6.90;99.90;;;;;;4431027;26;20023;-60
2024/04/23 00:17:08;;;;;;;4.55;3.35;;;6.90;99.90;;;;;;4454756;26;20016;-59
2024/04/23 00:19:09;;;;;;;5.50;4.18;;;6.90;99.90;;;;;;4458255;26;20494;-60
2024/04/23 00:21:10;;;;;;;6.00;3.70;;;6.90;99.90;;;;;;4451395;26;20050;-60
2024/04/23 00:23:10;;;;;;;6.07;4.03;;;6.80;99.90;;;;;;4449313;26;20010;-60
2024/04/23 00:25:11;;;;;;;6.32;4.00;;;6.80;99.90;;;;;;4450757;26;20463;-60
2024/04/23 00:27:11;;;;;;;5.13;3.83;;;6.70;99.90;;;;;;4457818;26;20004;-59
2024/04/23 00:29:12;;;;;;;5.82;4.30;;;6.70;99.90;;;;;;4456511;26;20023;-60
2024/04/23 00:31:12;;;;;;;5.25;4.03;;;6.70;99.90;;;;;;4451044;26;19996;-59
2024/04/23 00:33:13;;;;;;;4.43;3.30;;;6.70;99.90;;;;;;4458022;26;20353;-60
2024/04/23 00:35:14;;;;;;;4.05;3.20;;;6.70;99.90;;;;;;4458507;26;20007;-59
2024/04/23 00:37:14;;;;;;;4.88;3.50;;;6.80;99.90;;;;;;4458859;26;20364;-59
2024/04/23 00:39:15;;;;;;;4.65;3.53;;;6.70;99.90;;;;;;4466735;26;20019;-60
2024/04/23 00:41:15;;;;;;;4.82;3.42;;;6.70;99.90;;;;;;4465400;26;24942;-59
2024/04/23 00:43:16;;;;;;;6.25;3.92;;;6.70;99.90;;;;;;4438558;26;20341;-59
2024/04/23 00:45:21;;;;;;;6.75;4.22;;;6.70;99.90;;;;;;4467350;26;20016;-60
2024/04/23 00:47:22;;;;;;;4.38;3.53;;;6.60;99.90;;;;;;4453909;26;20030;-60
2024/04/23 00:49:23;;;;;;;4.85;3.58;;;6.60;99.90;;;;;;4458945;26;20008;-59
2024/04/23 00:51:23;;;;;;;5.07;3.60;;;6.60;99.90;;;;;;4464464;26;20361;-59
2024/04/23 00:53:24;;;;;;;4.57;3.35;;;6.60;99.90;;;;;;4458548;26;20042;-59
2024/04/23 00:55:27;;;;;;;5.78;3.65;;;6.60;99.90;;;;;;4465352;26;20744;-60
2024/04/23 00:57:27;;;;;;;7.18;4.18;;;6.60;99.90;;;;;;4460539;26;20008;-61
2024/04/23 00:59:28;;;;;;;5.90;4.18;;;6.50;99.90;;;;;;4469638;26;20025;-68
2024/04/23 01:01:29;;;;;;;5.72;4.30;;;6.50;99.90;;;;;;4464231;26;20008;-65
2024/04/23 01:03:30;;;;;;;5.00;3.85;;;6.50;99.90;;;;;;4459436;26;20008;-65
2024/04/23 01:05:30;;;;;;;6.47;4.55;;;6.40;99.90;;;;;;4450887;26;20036;-65
2024/04/23 01:07:31;;;;;;;6.47;4.32;;;6.40;99.90;;;;;;4460705;26;20023;-65
2024/04/23 01:09:32;;;;;;;8.55;4.20;;;6.40;99.90;;;;;;4455162;26;20479;-65
2024/04/23 01:11:34;;;;;;;7.03;4.00;;;6.40;99.90;;;;;;4451053;26;20012;-65
2024/04/23 01:13:34;;;;;;;5.78;4.07;;;6.40;99.90;;;;;;4432461;26;20558;-65
2024/04/23 01:15:37;;;;;;;6.13;4.15;;;6.30;99.90;;;;;;4458767;26;20024;-65
2024/04/23 01:17:39;;;;;;;5.88;4.35;;;6.30;99.90;;;;;;4460914;26;20500;-65
2024/04/23 01:19:49;;;;;;;6.22;4.00;;;6.30;99.90;;;;;;4453011;26;20085;-64
2024/04/23 01:22:24;;;;;;;9.10;4.93;;;6.30;99.90;;;;;;4470319;26;20512;-64
2024/04/23 01:24:37;;;;;;;5.25;4.20;;;6.30;99.90;;;;;;4445631;26;20081;-65
2024/04/23 01:26:38;;;;;;;7.78;5.07;;;6.30;99.90;;;;;;4416579;26;20026;-65
2024/04/23 01:28:41;;;;;;;5.97;4.75;;;6.30;99.90;;;;;;4457441;26;20019;-65
2024/04/23 01:30:44;;;;;;;5.85;4.10;;;6.30;99.90;;;;;;4455257;26;20057;-65
2024/04/23 01:32:47;;;;;;;6.10;4.53;;;6.40;99.90;;;;;;4447791;26;20004;-65
2024/04/23 01:34:48;;;;;;;7.70;4.85;;;6.30;99.90;;;;;;4455742;26;20041;-65
2024/04/23 01:36:50;;;;;;;6.65;4.40;;;6.30;99.90;;;;;;4451331;26;20004;-65
2024/04/23 01:38:52;;;;;;;6.00;4.00;;;6.30;99.90;;;;;;4462788;26;20049;-65
2024/04/23 01:40:53;;;;;;;6.68;4.03;;;6.30;99.90;;;;;;4461019;26;20004;-65
2024/04/23 01:42:55;;;;;;;6.22;4.07;;;6.30;99.90;;;;;;4462313;26;20031;-65
2024/04/23 01:44:58;;;;;;;5.18;3.90;;;6.30;99.90;;;;;;4466248;26;20004;-64
2024/04/23 01:46:58;;;;;;;6.65;4.72;;;6.20;99.90;;;;;;4422940;26;20013;-67
2024/04/23 01:48:59;;;;;;;5.75;4.13;;;6.20;99.90;;;;;;4458680;26;20008;-65
2024/04/23 01:51:00;;;;;;;6.35;4.43;;;6.20;99.90;;;;;;4466808;26;20018;-65
2024/04/23 01:53:00;;;;;;;4.88;3.95;;;6.20;99.90;;;;;;4407074;26;20467;-65
2024/04/23 01:55:01;;;;;;;5.03;3.85;;;6.20;99.90;;;;;;4459423;26;20008;-65
2024/04/23 01:57:05;;;;;;;6.20;4.60;;;6.20;99.90;;;;;;4456183;26;20003;-64
2024/04/23 01:59:06;;;;;;;5.30;3.88;;;6.20;99.90;;;;;;4456971;26;20012;-65
2024/04/23 02:01:08;;;;;;;5.50;4.30;;;6.20;99.90;;;;;;4451438;26;20019;-65
2024/04/23 02:03:10;;;;;;;6.80;5.00;;;6.20;99.90;;;;;;4463350;26;20359;-64
2024/04/23 02:05:12;;;;;;;7.53;4.63;;;6.10;99.90;;;;;;4421496;26;20551;-65
2024/04/23 02:07:16;;;;;;;7.22;4.57;;;6.10;99.90;;;;;;4460154;26;20383;-64
2024/04/23 02:09:17;;;;;;;6.35;4.60;;;6.10;99.90;;;;;;4457438;26;20076;-64
2024/04/23 02:11:18;;;;;;;6.60;4.65;;;6.10;99.90;;;;;;4456343;26;20442;-67
2024/04/23 02:13:18;;;;;;;7.32;4.95;;;6.10;99.90;;;;;;4461164;26;20023;-68
2024/04/23 02:15:19;;;;;;;5.78;4.43;;;6.10;99.90;;;;;;4449168;26;20024;-68
2024/04/23 02:17:20;;;;;;;6.63;4.75;;;6.10;99.90;;;;;;4453816;26;20023;-68
2024/04/23 02:19:20;;;;;;;6.25;4.93;;;6.10;99.90;;;;;;4454540;26;20384;-68
2024/04/23 02:21:21;;;;;;;7.35;5.00;;;6.10;99.90;;;;;;4455477;26;20356;-68
2024/04/23 02:23:21;;;;;;;5.35;3.80;;;6.10;99.90;;;;;;4464431;26;20551;-68
2024/04/23 02:25:23;;;;;;;5.45;4.30;;;6.10;99.90;;;;;;4451607;26;20019;-68
2024/04/23 02:27:23;;;;;;;5.05;4.50;;;6.10;99.90;;;;;;4448850;26;20047;-68
2024/04/23 02:29:24;;;;;;;7.43;4.20;;;6.10;99.90;;;;;;4456257;26;20473;-68
2024/04/23 02:31:24;;;;;;;6.53;4.55;;;6.10;99.90;;;;;;4466378;26;20027;-68
2024/04/23 02:33:25;;;;;;;7.50;5.10;;;6.10;99.90;;;;;;4467251;26;20014;-68
2024/04/23 02:35:26;;;;;;;7.15;4.88;;;6.10;99.90;;;;;;4453158;26;20071;-68
2024/04/23 02:37:26;;;;;;;6.20;4.85;;;6.00;99.90;;;;;;4458764;26;20004;-68
2024/04/23 02:39:27;;;;;;;6.55;4.38;;;6.00;99.90;;;;;;4457072;26;20020;-68
2024/04/23 02:41:28;;;;;;;6.53;4.40;;;6.10;99.90;;;;;;4453389;26;20023;-68
2024/04/23 02:43:28;;;;;;;6.90;4.47;;;6.00;99.90;;;;;;4448499;26;20034;-68
2024/04/23 02:45:29;;;;;;;5.63;4.38;;;6.00;99.90;;;;;;4455402;26;20441;-66
2024/04/23 02:47:29;;;;;;;7.13;4.28;;;6.10;99.90;;;;;;4432613;26;20015;-68
2024/04/23 02:49:30;;;;;;;7.43;4.63;;;6.00;99.90;;;;;;4422522;26;20017;-67
2024/04/23 02:51:30;;;;;;;7.60;4.80;;;6.00;99.90;;;;;;4428352;26;20058;-68
2024/04/23 02:53:31;;;;;;;7.80;4.72;;;6.00;99.90;;;;;;4445116;26;20105;-68
2024/04/23 02:55:32;;;;;;;5.50;4.22;;;6.00;99.90;;;;;;4455937;26;20039;-67
2024/04/23 02:57:32;;;;;;;6.22;4.68;;;6.00;99.90;;;;;;4459175;26;20024;-67
2024/04/23 02:59:33;;;;;;;7.13;4.97;;;6.00;99.90;;;;;;4430151;26;20453;-68
2024/04/23 03:01:33;;;;;;;7.28;5.68;;;5.90;99.90;;;;;;4460829;26;20004;-67
2024/04/23 03:03:34;;;;;;;6.38;4.60;;;5.90;99.90;;;;;;4449732;26;20483;-67
2024/04/23 03:05:34;;;;;;;7.38;5.25;;;5.90;99.90;;;;;;4452516;26;20012;-68
2024/04/23 03:07:35;;;;;;;8.20;5.75;;;5.90;99.90;;;;;;4452225;26;20004;-68
2024/04/23 03:09:36;;;;;;;5.93;4.63;;;5.90;99.90;;;;;;4450470;26;20383;-68
2024/04/23 03:11:36;;;;;;;8.07;5.50;;;5.90;99.90;;;;;;4454377;26;20023;-68
2024/04/23 03:13:37;;;;;;;6.57;4.65;;;5.90;99.90;;;;;;4449731;26;20410;-68
2024/04/23 03:15:37;;;;;;;7.65;4.68;;;5.80;99.90;;;;;;4417001;26;20000;-68
2024/04/23 03:17:38;;;;;;;7.65;5.60;;;5.80;99.90;;;;;;4446498;26;20139;-68
2024/04/23 03:19:38;;;;;;;6.80;5.03;;;5.80;99.90;;;;;;4454672;26;20011;-68
2024/04/23 03:21:53;;;;;;;6.63;4.65;;;5.80;99.90;;;;;;4421891;26;20441;-66
2024/04/23 03:23:54;;;;;;;5.75;4.25;;;5.70;99.90;;;;;;4463312;26;20075;-66
2024/04/23 03:25:54;;;;;;;5.72;4.40;;;5.80;99.90;;;;;;4457752;26;20011;-66
2024/04/23 03:27:55;;;;;;;5.32;4.13;;;5.70;99.90;;;;;;4458151;26;20452;-66
2024/04/23 03:29:55;;;;;;;5.53;4.50;;;5.70;99.90;;;;;;4472724;26;20078;-66
2024/04/23 03:32:04;;;;;;;5.63;4.22;;;5.70;99.90;;;;;;4418365;26;20009;-66
2024/04/23 03:34:05;;;;;;;6.13;4.72;;;5.70;99.90;;;;;;4449978;26;20022;-66
2024/04/23 03:36:06;;;;;;;6.13;4.38;;;5.80;99.90;;;;;;4446969;26;20524;-66
2024/04/23 03:38:06;;;;;;;6.80;4.90;;;5.70;99.90;;;;;;4458917;26;20022;-66
2024/04/23 03:40:08;;;;;;;6.65;5.20;;;5.70;99.90;;;;;;4465827;26;20016;-67
2024/04/23 03:42:08;;;;;;;6.57;4.90;;;5.70;99.90;;;;;;4422387;26;20465;-66
2024/04/23 03:44:09;;;;;;;6.30;4.88;;;5.70;99.90;;;;;;4450912;26;20062;-66
2024/04/23 03:46:09;;;;;;;6.97;5.10;;;5.70;99.90;;;;;;4443314;26;20355;-66
2024/04/23 03:48:10;;;;;;;8.60;4.72;;;5.70;99.90;;;;;;4454546;26;20023;-66
2024/04/23 03:50:11;;;;;;;5.95;4.63;;;5.70;99.90;;;;;;4462440;26;20072;-66
2024/04/23 03:52:12;;;;;;;6.75;5.00;;;5.70;99.90;;;;;;4463148;26;20484;-66
2024/04/23 03:54:13;;;;;;;7.10;5.03;;;5.70;99.90;;;;;;4463846;26;20004;-66
2024/04/23 03:56:14;;;;;;;7.50;5.35;;;5.70;99.90;;;;;;4456428;26;20344;-66
2024/04/23 03:58:14;;;;;;;8.80;5.20;;;5.60;99.90;;;;;;4454339;26;20335;-66
2024/04/23 04:00:15;;;;;;;6.50;4.50;;;5.60;99.90;;;;;;4452810;26;20448;-66
2024/04/23 04:06:54;;;;;;;8.00;5.22;;;5.50;99.90;;;;;;4425860;26;20020;-67
2024/04/23 04:08:55;;;;;;;6.72;4.70;;;5.50;99.90;;;;;;4453282;26;20008;-66
2024/04/23 04:10:55;;;;;;;7.65;5.18;;;5.50;99.90;;;;;;4468382;26;20012;-66
2024/04/23 04:12:56;;;;;;;7.03;5.18;;;5.50;99.90;;;;;;4462983;26;20596;-66
2024/04/23 04:14:57;;;;;;;5.88;4.72;;;5.50;99.90;;;;;;4455919;26;20096;-66
2024/04/23 04:16:57;;;;;;;7.60;5.07;;;5.40;99.90;;;;;;4452238;26;20016;-66
2024/04/23 04:18:58;;;;;;;7.25;5.38;;;5.40;99.90;;;;;;4455559;26;20449;-66
2024/04/23 04:20:58;;;;;;;8.27;4.95;;;5.40;99.90;;;;;;4449199;26;20126;-66
2024/04/23 04:22:59;;;;;;;7.90;5.40;;;5.40;99.90;;;;;;4459133;26;19999;-66
2024/04/23 04:25:00;;;;;;;7.65;5.32;;;5.30;99.90;;;;;;4454080;26;20016;-66
2024/04/23 04:27:00;;;;;;;7.60;5.47;;;5.30;99.90;;;;;;4451658;26;20004;-66
2024/04/23 04:29:01;;;;;;;7.70;5.47;;;5.30;99.90;;;;;;4421173;26;20512;-66
2024/04/23 04:31:01;;;;;;;7.20;5.10;;;5.20;99.90;;;;;;4387017;26;20117;-65
2024/04/23 04:33:02;;;;;;;7.43;4.93;;;5.20;99.90;;;;;;4427654;26;20005;-66
2024/04/23 04:35:03;;;;;;;6.05;4.65;;;5.20;99.90;;;;;;4454389;26;20003;-68
2024/04/23 04:37:03;;;;;;;6.38;4.35;;;5.20;99.90;;;;;;4451589;26;20019;-66
2024/04/23 04:39:04;;;;;;;7.60;5.03;;;5.20;99.90;;;;;;4452635;26;20004;-66
2024/04/23 04:41:05;;;;;;;7.90;5.18;;;5.20;99.90;;;;;;4421143;26;20001;-67
2024/04/23 04:43:05;;;;;;;8.07;5.70;;;5.20;99.90;;;;;;4443740;26;20036;-66
2024/04/23 04:45:06;;;;;;;7.82;5.18;;;5.20;99.90;;;;;;4419483;26;20053;-69
2024/04/23 04:47:06;;;;;;;7.85;5.07;;;5.20;99.90;;;;;;4457691;26;20016;-67
2024/04/23 04:49:07;;;;;;;6.65;5.15;;;5.20;99.90;;;;;;4444644;26;20525;-66
2024/04/23 04:51:08;;;;;;;7.90;5.60;;;5.20;99.90;;;;;;4441096;26;20434;-65
2024/04/23 04:53:08;;;;;;;8.80;6.30;;;5.20;99.90;;;;;;4444393;26;20015;-64
2024/04/23 04:55:09;;;;;;;8.85;5.68;;;5.20;99.90;;;;;;4440401;26;20015;-65
2024/04/23 04:57:09;;;;;;;5.95;4.97;;;5.20;99.90;;;;;;4448805;26;20008;-64
2024/04/23 04:59:10;;;;;;;8.20;5.88;;;5.20;99.90;;;;;;4443244;26;20019;-64
2024/04/23 05:01:11;;;;;;;6.93;5.03;;;5.20;99.90;;;;;;4442046;26;20392;-64
2024/04/23 05:03:11;;;;;;;8.82;6.03;;;5.20;99.90;;;;;;4451119;26;19999;-64
2024/04/23 05:05:12;;;;;;;7.40;5.68;;;5.20;99.90;;;;;;4436952;26;20464;-65
2024/04/23 05:07:12;;;;;;;6.65;5.15;;;5.20;99.90;;;;;;4441189;26;20068;-64
2024/04/23 05:09:13;;;;;;;8.35;5.95;;;5.20;99.90;;;;;;4416260;26;20005;-64
2024/04/23 05:11:14;;;;;;;9.57;5.78;;;5.20;99.90;;;;;;4411855;26;20009;-64
2024/04/23 05:13:15;;;;;;;10.30;5.80;;;5.30;99.90;;;;;;4415470;26;20027;-64
2024/04/23 05:15:17;;;;;;;8.70;5.65;;;5.30;99.90;;;;;;4412204;26;20027;-64
2024/04/23 05:17:18;;;;;;;7.60;5.32;;;5.30;99.90;;;;;;4449141;26;20507;-64
2024/04/23 05:19:18;;;;;;;8.48;6.30;;;5.30;99.90;;;;;;4416579;26;20045;-64
2024/04/23 05:21:19;;;;;;;7.40;5.50;;;5.30;99.90;;;;;;4440813;26;20490;-64
2024/04/23 05:23:20;;;;;;;10.75;6.05;;;5.40;99.90;;;;;;4409507;26;20016;-64
2024/04/23 05:25:20;;;;;;;8.13;6.07;;;5.40;99.90;;;;;;4409677;26;20040;-64
2024/04/23 05:27:21;;;;;;;10.55;6.07;;;5.40;99.90;;;;;;4438940;26;20024;-64
2024/04/23 05:29:21;;;;;;;10.13;6.40;;;5.40;99.90;;;;;;4439887;26;20016;-64
2024/04/23 05:33:41;;;;;;;10.55;5.93;;;5.50;99.90;;;;;;4446572;26;20004;-64
2024/04/23 05:35:43;;;;;;;8.15;6.07;;;5.50;99.90;;;;;;4438222;26;20015;-65
2024/04/23 05:37:43;;;;;;;11.25;5.65;;;5.50;99.90;;;;;;4403385;26;20485;-64
2024/04/23 05:39:45;;;;;;;8.75;5.68;;;5.50;99.90;;;;;;4432150;26;20015;-59
2024/04/23 05:41:46;;;;;;;8.38;5.95;;;5.50;99.90;;;;;;4443779;26;20016;-74
2024/04/23 05:43:47;;;;;;;7.95;5.80;;;5.60;99.90;;;;;;4415407;26;20385;-72
2024/04/23 05:45:48;;;;;;;10.45;6.53;;;5.60;99.90;;;;;;4406140;26;20020;-73
2024/04/23 05:48:26;;;;;;;8.57;5.70;;;5.60;99.90;;;;;;4445518;26;20016;-73
2024/04/23 05:51:04;;;;;;;9.15;6.13;;;5.70;99.90;;;;;;4442179;26;20775;-73
2024/04/23 05:53:42;;;;;;;9.65;6.43;;;5.70;99.90;;;;;;4433828;26;20026;-73
2024/04/23 05:55:43;;;;;;;8.00;5.45;;;5.80;99.90;;;;;;4433640;26;20012;-73
2024/04/23 05:57:44;;;;;;;9.43;6.00;;;5.80;99.90;;;;;;4446644;26;20568;-72
2024/04/23 05:59:44;;;;;;;8.07;5.72;;;5.90;99.90;;;;;;4443252;26;20034;-72
2024/04/23 06:01:45;;;;;;;8.10;5.88;;;5.90;99.90;;;;;;4442574;26;20456;-72
2024/04/23 06:03:45;;;;;;;10.05;5.65;;;5.90;99.90;;;;;;4444216;26;20008;-73
2024/04/23 06:05:46;;;;;;;10.00;6.15;;;5.90;99.90;;;;;;4413023;26;20509;-73
2024/04/23 06:07:46;;;;;;;7.60;5.80;;;5.90;99.90;;;;;;4442835;26;20089;-74
2024/04/23 06:09:47;;;;;;;8.93;6.43;;;6.00;99.90;;;;;;4440921;26;20016;-73
2024/04/23 06:11:48;;;;;;;8.45;5.95;;;6.00;99.90;;;;;;4441450;26;20031;-73
2024/04/23 06:13:49;;;;;;;8.40;5.75;;;6.10;99.90;;;;;;4445141;26;20460;-73
2024/04/23 06:15:49;;;;;;;8.23;5.78;;;6.10;99.90;;;;;;4442366;26;20008;-73
2024/04/23 06:17:50;;;;;;;9.77;6.22;;;6.10;99.90;;;;;;4445994;26;20004;-73
2024/04/23 06:19:51;;;;;;;9.52;6.50;;;6.20;99.90;;;;;;4446277;26;20733;-73
2024/04/23 06:21:52;;;;;;;11.40;5.90;;;6.20;99.90;;;;;;4441166;26;20093;-74
2024/04/23 06:23:52;;;;;;;9.50;6.10;;;6.30;99.90;;;;;;4446133;26;20012;-73
2024/04/23 06:25:55;;;;;;;9.95;6.10;;;6.40;99.90;;;;;;4442925;26;20015;-73
2024/04/23 06:27:55;;;;;;;10.80;6.80;;;6.40;99.90;;;;;;4410419;26;20629;-74
2024/04/23 06:30:09;;;;;;;10.32;6.72;;;6.40;99.90;;;;;;4434943;26;20008;-73
2024/04/23 06:32:12;;;;;;;13.27;7.13;;;6.40;99.90;;;;;;4425392;26;20085;-73
2024/04/23 06:34:13;;;;;;;11.07;6.63;;;6.40;99.90;;;;;;4410160;26;20509;-72
2024/04/23 06:36:14;;;;;;;11.52;6.43;;;6.50;99.90;;;;;;4438306;26;20097;-72
2024/04/23 06:38:14;;;;;;;11.15;6.90;;;6.70;99.90;;;;;;4438836;26;19995;-72
2024/04/23 06:40:15;;;;;;;10.45;6.38;;;7.00;99.90;;;;;;4439242;26;20531;-72
2024/04/23 06:42:15;;;;;;;11.85;7.05;;;7.30;99.90;;;;;;4440597;26;20012;-73
2024/04/23 06:44:16;;;;;;;11.45;7.20;;;7.60;99.90;;;;;;4434514;26;20091;-72
2024/04/23 06:46:17;;;;;;;11.35;7.47;;;7.90;99.90;;;;;;4434267;26;20022;-72
2024/04/23 06:48:17;;;;;;;9.35;6.50;;;8.10;99.90;;;;;;4445268;26;20008;-72
2024/04/23 06:50:18;;;;;;;11.43;6.30;;;8.40;99.90;;;;;;4443955;26;20061;-65
2024/04/23 06:52:19;;;;;;;10.27;5.88;;;8.70;99.90;;;;;;4412365;26;20013;-65
2024/04/23 06:54:19;;;;;;;8.23;5.72;;;9.10;99.90;;;;;;4443103;26;20000;-65
2024/04/23 06:56:20;;;;;;;10.57;5.75;;;9.40;99.90;;;;;;4441925;26;20477;-65
2024/04/23 06:58:20;;;;;;;8.85;5.95;;;9.70;99.90;;;;;;4441698;26;20109;-65
2024/04/23 07:00:21;;;;;;;6.60;5.03;;;10.00;99.90;;;;;;4439428;26;20781;-65
2024/04/23 07:02:22;;;;;;;7.88;5.50;;;10.20;99.90;;;;;;4447499;26;20048;-65
2024/04/23 07:04:22;;;;;;;8.85;5.30;;;10.50;99.90;;;;;;4444010;26;20012;-65
2024/04/23 07:06:23;;;;;;;7.57;5.20;;;10.80;99.90;;;;;;4441184;26;20088;-65
2024/04/23 07:08:23;;;;;;;8.73;5.40;;;11.00;99.90;;;;;;4442668;26;20433;-65
2024/04/23 07:10:24;;;;;;;7.95;5.50;;;11.20;99.90;;;;;;4439165;26;20357;-65
2024/04/23 07:12:25;;;;;;;7.43;5.10;;;11.30;99.90;;;;;;4443419;26;20004;-65
2024/04/23 07:14:25;;;;;;;8.55;5.30;;;11.50;99.90;;;;;;4445805;26;20085;-65
2024/04/23 07:16:26;;;;;;;13.25;5.97;;;11.60;99.90;;;;;;4436534;26;20018;-65
2024/04/23 07:18:26;;;;;;;7.60;5.60;;;11.80;99.90;;;;;;4441721;26;20062;-65
2024/04/23 07:20:27;;;;;;;7.00;5.30;;;11.90;99.90;;;;;;4440696;26;20349;-65
2024/04/23 07:22:27;;;;;;;6.57;4.97;;;12.10;99.90;;;;;;4439786;26;20051;-65
2024/04/23 07:24:28;;;;;;;10.07;5.63;;;12.20;99.90;;;;;;4436354;26;20025;-65
2024/04/23 07:26:29;;;;;;;7.18;5.40;;;12.40;99.90;;;;;;4437416;26;20018;-65
2024/04/23 07:28:29;;;;;;;6.55;4.85;;;12.50;99.90;;;;;;4439149;26;20031;-65
2024/04/23 07:30:30;;;;;;;6.82;4.97;;;12.60;99.90;;;;;;4403357;26;20056;-65
2024/04/23 07:32:30;;;;;;;6.15;4.60;;;12.60;99.90;;;;;;4436770;26;20012;-65
2024/04/23 07:34:31;;;;;;;5.88;4.85;;;12.70;99.90;;;;;;4438127;26;20869;-65
2024/04/23 07:36:32;;;;;;;8.38;5.00;;;12.80;99.90;;;;;;4442518;26;20008;-65
2024/04/23 07:38:32;;;;;;;7.28;4.78;;;12.90;99.90;;;;;;4405986;26;20020;-66
2024/04/23 07:40:33;;;;;;;8.60;4.90;;;13.00;99.90;;;;;;4441486;26;20032;-65
2024/04/23 07:42:35;;;;;;;9.82;5.22;;;13.00;99.90;;;;;;4440208;26;20008;-65
2024/04/23 07:44:35;;;;;;;6.60;4.75;;;13.00;99.90;;;;;;4439140;26;20004;-65
2024/04/23 07:46:36;;;;;;;8.82;4.88;;;13.10;99.90;;;;;;4404200;26;20012;-65
2024/04/23 07:48:36;;;;;;;7.97;4.72;;;13.10;99.90;;;;;;4441682;26;20004;-65
2024/04/23 07:50:37;;;;;;;7.45;4.93;;;13.10;99.90;;;;;;4443000;26;20019;-64
2024/04/23 07:52:37;;;;;;;8.07;4.50;;;13.20;99.90;;;;;;4435167;26;20031;-64
2024/04/23 07:54:38;;;;;;;6.10;4.28;;;13.20;99.90;;;;;;4396237;26;20020;-65
2024/04/23 07:56:39;;;;;;;7.45;3.90;;;13.20;99.90;;;;;;4397172;26;20009;-64
2024/04/23 07:58:39;;;;;;;6.50;3.95;;;13.10;99.90;;;;;;4424909;26;20036;-64
2024/04/23 08:00:40;;;;;;;5.88;3.95;;;13.10;99.90;;;;;;4436609;26;20022;-62
2024/04/23 08:02:43;;;;;;;4.93;3.72;;;13.00;99.90;;;;;;4441912;26;20009;-62
2024/04/23 08:04:44;;;;;;;5.35;3.47;;;13.00;99.20;;;;;;4429521;26;20019;-62
2024/04/23 08:06:45;;;;;;;6.82;4.40;;;13.00;99.70;;;;;;4432791;26;20456;-62
2024/04/23 08:08:45;;;;;;;6.18;4.25;;;13.00;99.50;;;;;;4431314;26;20009;-62
2024/04/23 08:10:46;;;;;;;5.25;3.50;;;13.00;99.90;;;;;;4435128;26;20341;-64
2024/04/23 08:12:47;;;;;;;6.53;3.85;;;13.10;99.90;;;;;;4434926;26;20008;-63
2024/04/23 08:14:48;;;;;;;7.22;3.25;;;13.20;99.80;;;;;;4404605;26;20027;-62
2024/04/23 08:16:49;;;;;;;7.22;3.90;;;13.20;98.50;;;;;;4434981;26;20012;-64
2024/04/23 08:18:49;;;;;;;4.47;3.53;;;13.20;99.40;;;;;;4435472;26;20435;-64
2024/04/23 08:20:51;;;;;;;5.28;3.53;;;13.20;99.30;;;;;;4433390;26;20540;-64
2024/04/23 08:22:58;;;;;;;6.07;3.50;;;13.30;99.60;;;;;;4438926;26;20012;-63
2024/04/23 08:24:59;;;;;;;6.60;3.83;;;13.30;99.90;;;;;;4436660;26;21307;-64
2024/04/23 08:27:00;;;;;;;5.50;3.83;;;13.30;97.40;;;;;;4437082;26;21082;-63
2024/04/23 08:29:01;;;;;;;6.68;4.00;;;13.30;98.70;;;;;;4422906;26;20012;-63
2024/04/23 08:31:02;;;;;;;4.75;3.38;;;13.30;98.70;;;;;;4437365;26;20004;-63
2024/04/23 08:33:03;;;;;;;7.70;3.80;;;13.40;98.80;;;;;;4436488;26;20022;-63
2024/04/23 08:35:04;;;;;;;5.38;3.42;;;13.30;98.10;;;;;;4406697;26;20012;-63
2024/04/23 08:37:07;;;;;;;5.47;3.83;;;13.40;97.30;;;;;;4379520;26;20006;-63
2024/04/23 08:39:08;;;;;;;5.03;3.67;;;13.40;99.20;;;;;;4405837;26;20390;-63
2024/04/23 08:41:15;;;;;;;6.18;3.53;;;13.40;98.00;;;;;;4432737;26;21000;-63
2024/04/23 08:43:23;;;;;;;7.05;3.50;;;13.40;96.70;;;;;;4401855;26;20005;-63
2024/04/23 08:45:29;;;;;;;4.82;3.50;;;13.50;97.30;;;;;;4430831;26;20030;-63
2024/04/23 08:47:30;;;;;;;5.45;3.78;;;13.50;96.90;;;;;;4437644;26;20117;-63
2024/04/23 08:49:31;;;;;;;5.30;3.55;;;13.50;97.10;;;;;;4405698;26;20025;-63
2024/04/23 08:51:33;;;;;;;4.32;3.47;;;13.40;96.60;;;;;;4435346;26;20004;-63
2024/04/23 08:53:34;;;;;;;4.47;3.33;;;13.50;97.60;;;;;;4440988;26;20015;-64
2024/04/23 08:55:43;;;;;;;5.47;3.20;;;13.50;97.50;;;;;;4439391;26;20065;-63
2024/04/23 08:57:45;;;;;;;4.07;2.80;;;13.50;98.00;;;;;;4441914;26;20449;-63
2024/04/23 08:59:46;;;;;;;5.15;3.05;;;13.60;95.60;;;;;;4442926;26;20042;-63
2024/04/23 09:01:57;;;;;;;4.50;2.67;;;13.70;98.00;;;;;;4440162;26;20001;-65
2024/04/23 09:04:01;;;;;;;4.05;2.95;;;13.70;96.90;;;;;;4440327;26;20018;-63
2024/04/23 09:06:02;;;;;;;5.10;3.03;;;13.70;96.40;;;;;;4436151;26;20008;-63
2024/04/23 09:08:03;;;;;;;3.92;2.65;;;13.40;94.20;;;;;;4444951;26;20475;-63
2024/04/23 09:10:05;;;;;;;4.47;2.63;;;13.40;94.50;;;;;;4439993;26;20024;-70
2024/04/23 09:12:06;;;;;;;5.65;2.60;;;13.40;94.70;;;;;;4436850;26;20016;-65
2024/04/23 09:14:06;;;;;;;6.18;2.80;;;13.30;94.10;;;;;;4441557;26;20012;-66
2024/04/23 09:16:07;;;;;;;5.55;3.10;;;13.30;94.40;;;;;;4441605;26;20008;-66
2024/04/23 09:18:08;;;;;;;5.10;3.38;;;13.20;93.20;;;;;;4447682;26;20012;-66
2024/04/23 09:20:13;;;;;;;4.03;2.70;;;13.20;94.60;;;;;;4411683;26;20528;-69
2024/04/23 09:22:14;;;;;;;4.38;2.70;;;13.20;94.60;;;;;;4441533;26;20020;-66
2024/04/23 09:24:23;;;;;;;5.10;2.60;;;13.30;95.40;;;;;;4442697;26;20019;-66
2024/04/23 09:26:24;;;;;;;3.88;2.22;;;13.30;93.70;;;;;;4439672;26;20039;-66
2024/04/23 09:28:25;;;;;;;4.38;2.78;;;13.40;94.80;;;;;;4444350;26;20012;-66
2024/04/23 09:30:26;;;;;;;3.63;2.30;;;13.40;95.40;;;;;;4445098;26;20024;-66
2024/04/23 09:32:27;;;;;;;3.28;2.20;;;13.60;94.60;;;;;;4446240;26;20015;-66
2024/04/23 09:34:29;;;;;;;5.28;2.50;;;13.60;94.70;;;;;;4445309;26;20349;-66
2024/04/23 09:36:32;;;;;;;3.92;2.92;;;13.60;93.20;;;;;;4440884;26;20004;-66
2024/04/23 09:38:34;;;;;;;5.82;3.22;;;13.50;92.10;;;;;;4412268;26;20388;-66
2024/04/23 09:40:41;;;;;;;6.63;3.60;;;13.50;94.10;;;;;;4442948;26;20012;-66
2024/04/23 09:42:42;;;;;;;5.25;3.25;;;13.40;92.70;;;;;;4446447;26;20469;-66
2024/04/23 09:44:46;;;;;;;5.18;3.47;;;13.30;91.80;;;;;;4442832;26;20030;-65
2024/04/23 09:46:46;;;;;;;4.65;2.88;;;13.00;91.60;;;;;;4437292;26;20469;-66
2024/04/23 09:48:50;;;;;;;4.40;2.97;;;13.10;91.90;;;;;;4443498;26;20073;-66
2024/04/23 09:51:06;;;;;;;3.10;2.38;;;13.10;92.30;;;;;;4377981;26;20463;-66
2024/04/23 09:53:11;;;;;;;4.18;2.60;;;13.10;93.70;;;;;;4407990;26;20385;-66
2024/04/23 09:55:18;;;;;;;3.13;2.60;;;13.00;91.80;;;;;;4438552;26;20020;-66
2024/04/23 09:57:19;;;;;;;3.03;2.33;;;13.00;93.50;;;;;;4432882;26;20365;-66
2024/04/23 09:59:19;;;;;;;5.80;2.42;;;12.90;92.20;;;;;;4429730;26;20030;-66
2024/04/23 10:01:21;;;;;;;3.13;2.08;;;13.00;92.00;;;;;;4436155;26;20574;-66
2024/04/23 10:03:24;;;;;;;3.08;2.22;;;13.00;91.80;;;;;;4439039;26;20012;-66
2024/04/23 10:05:28;;;;;;;;;;;13.00;92.10;;;;;;4438782;26;20338;-65
2024/04/23 10:07:32;;;;;;;3.55;2.50;;;13.10;92.90;;;;;;4439619;26;19933;-66
2024/04/23 10:09:33;;;;;;;4.05;3.05;;;13.10;90.60;;;;;;4439455;26;20689;-66
2024/04/23 10:11:43;;;;;;;5.28;3.13;;;13.00;91.70;;;;;;4439113;26;20004;-66
2024/04/23 10:13:52;;;;;;;4.78;3.08;;;13.00;90.80;;;;;;4437021;26;20023;-66
2024/04/23 10:15:58;;;;;;;4.93;2.70;;;13.00;90.60;;;;;;4437728;26;20001;-66
2024/04/23 10:18:12;;;;;;;6.57;3.47;;;13.00;90.30;;;;;;4438540;26;20487;-66
2024/04/23 10:20:20;;;;;;;3.28;2.53;;;13.00;92.60;;;;;;4438484;26;20449;-64
2024/04/23 10:22:21;;;;;;;6.93;2.97;;;13.00;92.40;;;;;;4439328;26;20062;-64
2024/04/23 10:24:23;;;;;;;4.10;2.70;;;13.00;93.30;;;;;;4442163;26;20024;-64
2024/04/23 10:26:25;;;;;;;5.28;3.05;;;13.00;93.20;;;;;;4440578;26;21102;-65
2024/04/23 10:28:27;;;;;;;7.43;3.33;;;13.00;95.90;;;;;;4441586;26;20008;-64
2024/04/23 10:30:31;;;;;;;5.25;2.92;;;13.10;96.80;;;;;;4438592;26;20023;-64
2024/04/23 10:32:33;;;;;;;4.20;2.58;;;13.10;95.70;;;;;;4415021;26;20070;-64
2024/04/23 10:34:37;;;;;;;4.40;2.58;;;13.00;95.50;;;;;;4444194;26;20008;-64
2024/04/23 10:36:39;;;;;;;3.88;2.58;;;13.00;94.80;;;;;;4441186;26;20355;-64
2024/04/23 10:38:43;;;;;;;3.85;2.40;;;12.90;93.70;;;;;;4439519;26;20387;-64
2024/04/23 10:40:46;;;;;;;4.80;2.72;;;12.90;94.20;;;;;;4441912;26;20022;-64
2024/04/23 10:42:46;;;;;;;4.95;2.80;;;12.90;93.40;;;;;;4407877;26;20397;-64
2024/04/23 10:44:47;;;;;;;5.20;2.40;;;12.90;92.90;;;;;;4439628;26;20001;-64
2024/04/23 10:46:48;;;;;;;4.13;2.63;;;12.90;93.30;;;;;;4409479;26;20009;-65